Portland, Oregon
Current Conditions -  °F | °C
As of 5:53 PM on Friday 31 Oct 2014 (Local Time) from KPDX Reporting Station
Moderate Rain Moderate Rain  
Wind Chill: 52°   Ceiling: 4500
Heat Index: 52°   Visibility: 10mi
Dew Point: 49°   Wind: 6mph
Humidity: 89%   Direction: 340°NNW
Pressure: 29.86"   Gusts: NA
Location:  45.51°N, 122.67°W
Report Text: KPDX 010053Z 34005KT 10SM RA FEW020 BKN045 BKN070 BKN230 11/09 A2986 RMK AO2 RAB28 SLP111 P0003 T01110094
Loading
Personal Weather Stations






























Interactive Weather Map
Tropical Storm Tracking
New forecast layout! Learn more

10-Day Weather Forecast

Advertisements
Track Severe Weather on mobile